Time;durP1;ratioP1;P1;durP2;ratioP2;P2;SDS_P1;SDS_P2;PMS_P1;PMS_P2;Temp;Humidity;BMP_temperature;BMP_pressure;BME280_temperature;BME280_humidity;BME280_pressure;Samples;Min_cycle;Max_cycle;Signal;HPM_P1;HPM_P2
2021/10/27 00:02:21;;;;;;;9.80;5.28;;;23.30;49.40;;;;;;1898815;75;21036;-40
2021/10/27 00:04:49;;;;;;;9.98;4.92;;;23.30;49.40;;;;;;1898895;75;21485;-40
2021/10/27 00:07:16;;;;;;;11.97;5.55;;;23.30;49.40;;;;;;1898870;75;21513;-40
2021/10/27 00:09:45;;;;;;;12.50;5.20;;;23.30;49.40;;;;;;1898784;75;21083;-38
2021/10/27 00:12:15;;;;;;;11.28;5.80;;;23.30;50.10;;;;;;1898753;75;21095;-38
2021/10/27 00:14:41;;;;;;;11.75;5.20;;;23.30;49.80;;;;;;1898492;75;21170;-37
2021/10/27 00:17:09;;;;;;;10.30;5.33;;;23.30;49.60;;;;;;1898754;75;21044;-39
2021/10/27 00:19:36;;;;;;;11.15;5.55;;;23.30;49.60;;;;;;1898735;75;21048;-37
2021/10/27 00:22:04;;;;;;;11.15;5.00;;;23.20;49.60;;;;;;1898696;75;21136;-40
2021/10/27 00:24:32;;;;;;;8.43;5.10;;;23.20;49.70;;;;;;1898900;75;21453;-40
2021/10/27 00:26:59;;;;;;;12.20;5.78;;;23.20;49.70;;;;;;1898733;75;21053;-42
2021/10/27 00:29:27;;;;;;;10.75;6.00;;;23.20;49.40;;;;;;1898829;75;21139;-40
2021/10/27 00:31:55;;;;;;;9.40;5.50;;;23.20;49.20;;;;;;1898900;75;21532;-40
2021/10/27 00:34:23;;;;;;;8.45;5.37;;;23.20;49.90;;;;;;1898737;75;21586;-36
2021/10/27 00:36:50;;;;;;;9.60;6.55;;;23.20;50.00;;;;;;1898782;75;21500;-39
2021/10/27 00:39:18;;;;;;;12.80;5.70;;;23.20;50.00;;;;;;1898667;75;21059;-36
2021/10/27 00:41:46;;;;;;;11.70;5.75;;;23.20;50.50;;;;;;1898711;75;21051;-38
2021/10/27 00:44:25;;;;;;;7.85;4.95;;;23.20;49.90;;;;;;1898740;75;21137;-37
2021/10/27 00:47:01;;;;;;;9.80;5.90;;;23.20;49.90;;;;;;1895084;75;21071;-40
2021/10/27 00:49:29;;;;;;;10.55;5.28;;;23.20;49.90;;;;;;1863610;77;21142;-42
2021/10/27 00:51:58;;;;;;;12.80;5.58;;;23.10;50.00;;;;;;1864728;77;21092;-41
2021/10/27 00:54:25;;;;;;;12.23;5.85;;;23.20;50.00;;;;;;1864910;77;21497;-46
2021/10/27 00:56:55;;;;;;;9.48;5.20;;;23.10;50.00;;;;;;1864633;77;21064;-41
2021/10/27 00:59:26;;;;;;;9.75;5.45;;;23.20;50.00;;;;;;1864699;77;21036;-44
2021/10/27 01:01:53;;;;;;;9.38;5.60;;;23.20;50.00;;;;;;1863224;77;21163;-45
2021/10/27 01:04:23;;;;;;;8.30;5.12;;;23.20;50.10;;;;;;1864736;77;21177;-44
2021/10/27 01:06:51;;;;;;;10.58;5.40;;;23.10;50.10;;;;;;1864674;77;21102;-40
2021/10/27 01:09:19;;;;;;;13.05;6.30;;;23.20;50.10;;;;;;1864767;77;21529;-41
2021/10/27 01:11:48;;;;;;;11.05;6.72;;;23.20;50.10;;;;;;1864729;76;21099;-41
2021/10/27 01:14:15;;;;;;;12.60;6.30;;;23.20;50.00;;;;;;1864787;76;21083;-40
2021/10/27 01:16:43;;;;;;;16.20;6.42;;;23.10;50.10;;;;;;1864649;77;21497;-41
2021/10/27 01:19:10;;;;;;;13.53;5.95;;;23.10;50.10;;;;;;1864717;76;21079;-40
2021/10/27 01:21:40;;;;;;;11.93;5.83;;;23.10;50.10;;;;;;1864689;77;21579;-39
2021/10/27 01:24:07;;;;;;;9.95;5.67;;;23.10;50.20;;;;;;1864600;76;21102;-38
2021/10/27 01:26:35;;;;;;;13.20;6.10;;;23.10;50.20;;;;;;1864828;77;21686;-45
2021/10/27 01:29:02;;;;;;;11.30;5.62;;;23.10;50.20;;;;;;1864707;77;21053;-41
2021/10/27 01:31:30;;;;;;;10.13;5.58;;;23.20;50.20;;;;;;1864711;77;21104;-41
2021/10/27 01:33:59;;;;;;;13.43;5.58;;;23.20;50.10;;;;;;1864630;77;21060;-41
2021/10/27 01:36:29;;;;;;;11.70;5.72;;;23.20;50.10;;;;;;1864571;77;21550;-37
2021/10/27 01:38:56;;;;;;;11.88;6.35;;;23.20;50.20;;;;;;1864484;76;21084;-38
2021/10/27 01:41:23;;;;;;;10.38;6.00;;;23.20;50.20;;;;;;1864711;77;21051;-38
2021/10/27 01:43:54;;;;;;;11.95;5.20;;;23.20;50.20;;;;;;1864802;77;21036;-37
2021/10/27 01:46:35;;;;;;;11.50;5.80;;;23.20;50.30;;;;;;1864486;77;21117;-37
2021/10/27 01:49:06;;;;;;;11.53;5.65;;;23.20;50.30;;;;;;1892572;75;21477;-37
2021/10/27 01:51:34;;;;;;;11.95;5.78;;;23.10;50.30;;;;;;1898910;75;21160;-35
2021/10/27 01:54:01;;;;;;;15.00;5.72;;;23.10;50.30;;;;;;1898846;75;21595;-38
2021/10/27 01:56:30;;;;;;;15.43;6.87;;;23.20;50.30;;;;;;1898778;75;21080;-40
2021/10/27 01:58:57;;;;;;;13.72;5.55;;;23.20;50.30;;;;;;1898741;75;21544;-39
2021/10/27 02:01:25;;;;;;;10.75;6.00;;;23.20;50.20;;;;;;1898717;75;21590;-39
2021/10/27 02:03:53;;;;;;;10.38;5.47;;;23.30;50.20;;;;;;1898851;75;21516;-39
2021/10/27 02:06:21;;;;;;;10.00;5.35;;;23.30;50.20;;;;;;1898750;75;21167;-38
2021/10/27 02:08:48;;;;;;;9.18;5.45;;;23.30;50.10;;;;;;1898806;75;21481;-43
2021/10/27 02:11:16;;;;;;;12.33;6.17;;;23.30;50.20;;;;;;1898670;75;21563;-44
2021/10/27 02:13:43;;;;;;;13.20;6.12;;;23.30;50.30;;;;;;1898716;75;21558;-39
2021/10/27 02:16:14;;;;;;;11.40;6.28;;;23.30;50.40;;;;;;1898635;75;21044;-43
2021/10/27 02:18:41;;;;;;;10.08;5.65;;;23.20;50.40;;;;;;1898641;75;21502;-43
2021/10/27 02:21:09;;;;;;;10.45;5.30;;;23.20;50.40;;;;;;1898643;75;21453;-38
2021/10/27 02:23:36;;;;;;;10.35;6.35;;;23.20;50.50;;;;;;1898807;75;21489;-38
2021/10/27 02:26:04;;;;;;;13.58;6.22;;;23.20;50.50;;;;;;1898639;75;21516;-38
2021/10/27 02:28:31;;;;;;;14.30;5.22;;;23.20;50.40;;;;;;1898653;75;21111;-38
2021/10/27 02:30:59;;;;;;;12.07;5.67;;;23.20;50.40;;;;;;1898726;75;21497;-39
2021/10/27 02:33:26;;;;;;;11.55;5.65;;;23.30;50.40;;;;;;1898754;75;21486;-39
2021/10/27 02:35:56;;;;;;;12.05;5.87;;;23.30;50.40;;;;;;1898651;75;21103;-38
2021/10/27 02:38:23;;;;;;;11.12;5.30;;;23.30;50.40;;;;;;1898763;75;21056;-43
2021/10/27 02:40:50;;;;;;;11.10;5.80;;;23.20;50.40;;;;;;1898697;75;21052;-38
2021/10/27 02:43:18;;;;;;;9.38;5.47;;;23.20;50.40;;;;;;1898647;75;21501;-40
2021/10/27 02:45:46;;;;;;;8.55;5.25;;;23.30;50.50;;;;;;1898853;75;21566;-39
2021/10/27 02:48:14;;;;;;;10.25;4.67;;;23.20;50.50;;;;;;1889656;75;21603;-38
2021/10/27 02:50:42;;;;;;;9.75;5.17;;;23.20;50.50;;;;;;1864840;77;21193;-43
2021/10/27 02:53:10;;;;;;;9.63;5.35;;;23.20;50.50;;;;;;1864876;77;21043;-38
2021/10/27 02:55:37;;;;;;;8.90;5.40;;;23.20;50.50;;;;;;1864961;76;21457;-38
2021/10/27 02:58:05;;;;;;;8.43;5.22;;;23.20;50.50;;;;;;1865022;77;21578;-35
2021/10/27 03:00:32;;;;;;;10.35;5.65;;;23.30;50.50;;;;;;1864976;77;21044;-38
2021/10/27 03:03:01;;;;;;;12.20;5.72;;;23.30;50.50;;;;;;1864915;77;21049;-36
2021/10/27 03:05:29;;;;;;;12.25;5.35;;;23.30;50.50;;;;;;1864974;76;21067;-37
2021/10/27 03:07:57;;;;;;;13.22;5.50;;;23.30;50.50;;;;;;1865022;77;21477;-37
2021/10/27 03:10:24;;;;;;;11.25;5.20;;;23.30;50.50;;;;;;1864949;76;21539;-37
2021/10/27 03:12:52;;;;;;;9.13;5.28;;;23.30;50.60;;;;;;1864911;77;21060;-42
2021/10/27 03:15:20;;;;;;;12.50;5.25;;;23.30;50.60;;;;;;1864973;77;21551;-42
2021/10/27 03:17:47;;;;;;;13.35;4.97;;;23.30;50.60;;;;;;1864953;76;21591;-40
2021/10/27 03:20:14;;;;;;;9.55;4.50;;;23.20;50.60;;;;;;1864855;77;21529;-40
2021/10/27 03:22:42;;;;;;;12.10;4.60;;;23.20;50.70;;;;;;1865024;77;21044;-38
2021/10/27 03:25:09;;;;;;;9.78;4.75;;;23.20;50.70;;;;;;1864974;76;21071;-42
2021/10/27 03:27:37;;;;;;;9.98;4.92;;;23.20;50.70;;;;;;1864894;76;21036;-38
2021/10/27 03:30:06;;;;;;;11.65;4.75;;;23.20;50.70;;;;;;1864951;77;21568;-37
2021/10/27 03:32:33;;;;;;;8.85;4.40;;;23.30;50.70;;;;;;1864856;77;21059;-47
2021/10/27 03:35:01;;;;;;;11.93;5.10;;;23.30;50.60;;;;;;1864836;77;21570;-40
2021/10/27 03:37:29;;;;;;;10.20;4.62;;;23.30;50.60;;;;;;1864833;77;21087;-39
2021/10/27 03:39:57;;;;;;;10.00;4.97;;;23.30;50.70;;;;;;1864926;76;21540;-37
2021/10/27 03:42:24;;;;;;;10.03;5.10;;;23.30;50.70;;;;;;1864860;77;21197;-43
2021/10/27 03:44:52;;;;;;;7.60;4.15;;;23.30;50.60;;;;;;1864742;77;21059;-38
2021/10/27 03:47:19;;;;;;;9.43;4.90;;;23.30;50.60;;;;;;1865058;77;21494;-38
2021/10/27 03:49:48;;;;;;;9.45;4.55;;;23.30;50.60;;;;;;1890247;75;21598;-41
2021/10/27 03:52:16;;;;;;;8.95;4.03;;;23.30;50.60;;;;;;1898940;75;21037;-39
2021/10/27 03:54:44;;;;;;;9.73;4.70;;;23.30;50.60;;;;;;1898792;75;21149;-33
2021/10/27 03:57:11;;;;;;;7.55;4.08;;;23.40;50.60;;;;;;1898768;75;21048;-36
2021/10/27 03:59:39;;;;;;;7.58;4.12;;;23.40;50.60;;;;;;1898701;75;21056;-37
2021/10/27 04:02:06;;;;;;;10.63;4.15;;;23.40;50.60;;;;;;1898579;75;21504;-38
2021/10/27 04:04:34;;;;;;;11.90;4.60;;;23.40;50.60;;;;;;1898892;75;21524;-39
2021/10/27 04:07:02;;;;;;;12.23;5.25;;;23.30;50.60;;;;;;1898803;75;21149;-37
2021/10/27 04:09:30;;;;;;;10.38;4.58;;;23.30;50.80;;;;;;1898809;75;21556;-37
2021/10/27 04:11:57;;;;;;;11.03;5.37;;;23.30;50.70;;;;;;1898833;75;21560;-41
2021/10/27 04:14:25;;;;;;;9.03;3.87;;;23.30;50.70;;;;;;1898900;75;21196;-37
2021/10/27 04:16:52;;;;;;;9.48;4.03;;;23.30;50.80;;;;;;1898814;75;21527;-34
2021/10/27 04:19:20;;;;;;;14.28;4.30;;;23.30;50.80;;;;;;1898824;75;21052;-36
2021/10/27 04:21:47;;;;;;;11.03;3.87;;;23.30;51.50;;;;;;1898833;75;21502;-40
2021/10/27 04:24:15;;;;;;;10.82;3.80;;;23.30;51.00;;;;;;1898737;75;21528;-41
2021/10/27 04:26:42;;;;;;;9.55;4.87;;;23.30;50.90;;;;;;1898805;75;21469;-38
2021/10/27 04:29:10;;;;;;;9.93;4.30;;;23.30;50.80;;;;;;1898740;75;21520;-40
2021/10/27 04:31:38;;;;;;;10.85;4.67;;;23.40;50.90;;;;;;1898764;75;21472;-38
2021/10/27 04:34:06;;;;;;;11.88;4.25;;;23.30;50.80;;;;;;1898743;75;21067;-38
2021/10/27 04:36:33;;;;;;;9.00;4.20;;;23.30;50.90;;;;;;1898820;75;21532;-39
2021/10/27 04:39:01;;;;;;;8.58;4.12;;;23.30;50.90;;;;;;1898843;75;21137;-36
2021/10/27 04:41:29;;;;;;;9.88;4.35;;;23.30;50.90;;;;;;1898712;75;21563;-39
2021/10/27 04:43:56;;;;;;;11.28;4.40;;;23.30;50.90;;;;;;1898750;75;21533;-41
2021/10/27 04:46:24;;;;;;;10.45;4.42;;;23.30;50.90;;;;;;1898749;75;21036;-39
2021/10/27 04:48:51;;;;;;;8.65;3.90;;;23.30;50.90;;;;;;1898705;75;21154;-37
2021/10/27 04:51:18;;;;;;;7.72;4.60;;;23.40;51.00;;;;;;1898823;75;21613;-37
2021/10/27 04:53:46;;;;;;;7.67;4.50;;;23.40;51.00;;;;;;1898763;75;21044;-38
2021/10/27 04:56:14;;;;;;;9.88;4.33;;;23.40;51.00;;;;;;1898849;75;21497;-41
2021/10/27 04:58:41;;;;;;;10.35;5.12;;;23.40;51.00;;;;;;1898779;75;21528;-36
2021/10/27 05:01:08;;;;;;;8.43;4.33;;;23.40;51.00;;;;;;1898768;75;21067;-41
2021/10/27 05:03:36;;;;;;;12.78;4.70;;;23.30;51.00;;;;;;1898906;75;21133;-39
2021/10/27 05:06:04;;;;;;;6.62;3.72;;;23.40;51.00;;;;;;1898758;75;21574;-41
2021/10/27 05:08:34;;;;;;;9.10;4.75;;;23.40;51.00;;;;;;1898736;75;21134;-41
2021/10/27 05:11:01;;;;;;;8.83;4.42;;;23.40;51.10;;;;;;1898435;75;21076;-35
2021/10/27 05:13:29;;;;;;;11.20;4.28;;;23.40;51.10;;;;;;1898669;75;21022;-37
2021/10/27 05:15:57;;;;;;;9.98;4.22;;;23.40;51.20;;;;;;1898731;75;21063;-37
2021/10/27 05:18:25;;;;;;;9.05;4.22;;;23.30;51.20;;;;;;1898783;75;21638;-38
2021/10/27 05:20:52;;;;;;;10.15;4.60;;;23.30;51.20;;;;;;1898677;75;21593;-35
2021/10/27 05:23:20;;;;;;;7.47;4.17;;;23.40;51.20;;;;;;1898622;75;21469;-41
2021/10/27 05:25:48;;;;;;;7.60;4.15;;;23.40;51.10;;;;;;1898733;75;21529;-36
2021/10/27 05:28:16;;;;;;;8.28;4.12;;;23.40;51.10;;;;;;1898788;75;21063;-35
2021/10/27 05:30:43;;;;;;;6.47;3.70;;;23.40;51.20;;;;;;1898748;75;21450;-39
2021/10/27 05:33:11;;;;;;;11.33;4.12;;;23.40;51.20;;;;;;1898727;75;21493;-44
2021/10/27 05:35:39;;;;;;;9.45;4.30;;;23.30;51.20;;;;;;1898609;75;21035;-41
2021/10/27 05:38:07;;;;;;;10.68;4.15;;;23.40;51.70;;;;;;1898568;75;21067;-40
2021/10/27 05:40:35;;;;;;;14.43;4.45;;;23.40;51.10;;;;;;1898830;75;21576;-39
2021/10/27 05:43:11;;;;;;;8.78;3.98;;;23.40;51.10;;;;;;1898760;75;21560;-40
2021/10/27 05:45:39;;;;;;;12.98;4.10;;;23.40;51.10;;;;;;1898829;75;21071;-42
2021/10/27 05:48:09;;;;;;;10.20;4.28;;;23.40;51.60;;;;;;1898807;75;21509;-40
2021/10/27 05:50:43;;;;;;;10.13;4.17;;;23.40;51.20;;;;;;1874960;75;21056;-43
2021/10/27 05:55:54;;;;;;;9.18;3.75;;;23.40;51.20;;;;;;1864615;77;21136;-39
2021/10/27 05:58:22;;;;;;;9.48;3.60;;;23.30;51.30;;;;;;1864483;77;21114;-40
2021/10/27 06:00:50;;;;;;;12.15;4.17;;;23.40;51.30;;;;;;1864676;77;21108;-38
2021/10/27 06:03:19;;;;;;;12.03;4.20;;;23.40;51.30;;;;;;1864615;77;21615;-40
2021/10/27 06:05:46;;;;;;;17.32;4.00;;;23.40;51.20;;;;;;1864532;76;21076;-40
2021/10/27 06:08:15;;;;;;;12.13;3.80;;;23.40;51.20;;;;;;1864597;77;21174;-38
2021/10/27 06:10:43;;;;;;;8.60;3.70;;;23.40;51.10;;;;;;1864653;76;21087;-41
2021/10/27 06:13:14;;;;;;;9.00;3.58;;;23.40;51.20;;;;;;1864638;76;21614;-41
2021/10/27 06:15:40;;;;;;;9.30;4.08;;;23.30;51.30;;;;;;1864314;77;21093;-39
2021/10/27 06:18:08;;;;;;;6.37;3.47;;;23.40;51.40;;;;;;1864856;77;21474;-39
2021/10/27 06:20:35;;;;;;;9.95;3.85;;;23.30;51.30;;;;;;1864594;77;21157;-38
2021/10/27 06:23:03;;;;;;;11.33;4.35;;;23.30;51.30;;;;;;1864536;77;21079;-39
2021/10/27 06:25:31;;;;;;;8.68;3.90;;;23.30;51.30;;;;;;1864554;77;21494;-42
2021/10/27 06:28:04;;;;;;;11.93;4.30;;;23.30;51.40;;;;;;1864478;77;21096;-36
2021/10/27 06:30:39;;;;;;;9.38;4.90;;;23.30;51.40;;;;;;1863637;77;21135;-39
2021/10/27 06:35:31;;;;;;;11.35;3.70;;;23.40;51.40;;;;;;1864474;77;21162;-39
2021/10/27 06:48:41;;;;;;;8.85;3.77;;;23.30;51.60;;;;;;1864622;76;21104;-38
2021/10/27 06:51:09;;;;;;;9.88;4.15;;;23.30;51.60;;;;;;1889255;75;21258;-37
2021/10/27 06:53:36;;;;;;;7.17;3.60;;;23.30;51.50;;;;;;1898553;75;21048;-39
2021/10/27 06:56:10;;;;;;;7.37;3.98;;;23.30;51.40;;;;;;1898651;75;21531;-37
2021/10/27 06:58:41;;;;;;;8.90;4.53;;;23.30;51.40;;;;;;1897472;75;21134;-38
2021/10/27 07:01:05;;;;;;;10.25;4.22;;;23.30;51.40;;;;;;1897066;75;21524;-36
2021/10/27 07:04:00;;;;;;;9.05;4.10;;;23.30;51.30;;;;;;1898158;75;21040;-40
2021/10/27 07:16:42;;;;;;;8.88;4.37;;;23.20;51.70;;;;;;1898500;75;21132;-39
2021/10/27 07:19:10;;;;;;;8.60;3.77;;;23.20;51.70;;;;;;1898696;75;21524;-40
2021/10/27 07:21:39;;;;;;;11.15;3.87;;;23.30;51.60;;;;;;1898631;75;21067;-36
2021/10/27 07:24:07;;;;;;;9.33;3.95;;;23.30;51.50;;;;;;1898772;75;21036;-36
2021/10/27 07:26:37;;;;;;;6.20;3.70;;;23.30;51.50;;;;;;1898708;75;21524;-36
2021/10/27 07:29:04;;;;;;;10.55;3.77;;;23.30;51.40;;;;;;1898289;75;21114;-37
2021/10/27 07:31:32;;;;;;;9.90;3.95;;;23.30;51.40;;;;;;1898490;75;21563;-36
2021/10/27 07:34:07;;;;;;;8.18;4.05;;;23.40;51.40;;;;;;1898717;75;21512;-36
2021/10/27 07:39:52;;;;;;;11.90;4.10;;;23.40;51.50;;;;;;1897143;75;21036;-36
2021/10/27 07:41:55;;;;;;;12.95;4.22;;;23.30;51.50;;;;;;1898709;75;21631;-35
2021/10/27 07:44:24;;;;;;;8.30;4.08;;;23.30;51.60;;;;;;1898813;75;21500;-38
2021/10/27 07:46:51;;;;;;;10.05;3.98;;;23.30;51.50;;;;;;1898763;75;21051;-38
2021/10/27 07:49:19;;;;;;;6.17;3.62;;;23.30;51.50;;;;;;1898728;75;21176;-42
2021/10/27 07:51:46;;;;;;;8.10;3.60;;;23.30;51.40;;;;;;1871344;75;21087;-40
2021/10/27 07:54:15;;;;;;;7.25;3.83;;;23.40;51.40;;;;;;1864538;77;21183;-36
2021/10/27 07:56:43;;;;;;;8.40;3.65;;;23.40;51.20;;;;;;1864865;77;21513;-41
2021/10/27 07:59:11;;;;;;;9.08;3.45;;;23.40;51.20;;;;;;1864610;76;21091;-36
2021/10/27 08:01:39;;;;;;;8.50;3.40;;;23.40;51.30;;;;;;1864775;77;21036;-38
2021/10/27 08:04:07;;;;;;;10.38;3.80;;;23.40;51.30;;;;;;1864632;77;21108;-39
2021/10/27 08:06:36;;;;;;;7.58;3.70;;;23.40;51.30;;;;;;1864608;77;21041;-37
2021/10/27 08:09:04;;;;;;;11.35;3.60;;;23.40;51.30;;;;;;1864758;77;21162;-42
2021/10/27 08:11:32;;;;;;;7.45;3.50;;;23.40;51.20;;;;;;1864749;76;21607;-37
2021/10/27 08:14:00;;;;;;;6.42;3.30;;;23.40;51.20;;;;;;1864604;77;21080;-38
2021/10/27 08:16:27;;;;;;;8.43;3.70;;;23.40;51.20;;;;;;1864523;77;21153;-36
2021/10/27 08:18:55;;;;;;;9.08;3.90;;;23.40;51.20;;;;;;1864658;77;21060;-35
2021/10/27 08:21:23;;;;;;;8.35;4.33;;;23.40;51.20;;;;;;1864622;77;21100;-40
2021/10/27 08:23:52;;;;;;;10.70;4.03;;;23.40;51.30;;;;;;1864657;77;21490;-39
2021/10/27 08:26:22;;;;;;;9.80;3.30;;;23.40;51.20;;;;;;1864598;76;21072;-37
2021/10/27 08:29:31;;;;;;;9.08;3.22;;;23.40;51.20;;;;;;1864213;77;21076;-35
2021/10/27 08:31:32;;;;;;;10.40;3.33;;;23.40;51.30;;;;;;1838412;77;21079;-36
2021/10/27 08:36:23;;;;;;;10.63;3.60;;;23.40;51.30;;;;;;1864606;77;21264;-37
2021/10/27 08:38:51;;;;;;;7.30;3.20;;;23.40;51.30;;;;;;1864846;77;21505;-36
2021/10/27 08:41:22;;;;;;;8.68;2.92;;;23.40;51.30;;;;;;1864680;77;21560;-37
2021/10/27 08:43:49;;;;;;;12.07;3.42;;;23.40;51.30;;;;;;1864680;77;21554;-35
2021/10/27 08:46:18;;;;;;;11.93;3.45;;;23.40;51.20;;;;;;1864894;76;21571;-37
2021/10/27 08:48:49;;;;;;;7.25;3.72;;;23.40;51.20;;;;;;1864842;77;21525;-37
2021/10/27 08:51:17;;;;;;;6.90;3.37;;;23.30;51.30;;;;;;1864875;77;21105;-38
2021/10/27 08:53:46;;;;;;;6.12;2.70;;;23.30;51.30;;;;;;1864935;77;21521;-40
2021/10/27 08:56:14;;;;;;;8.00;2.95;;;23.30;51.30;;;;;;1864657;77;21040;-38
2021/10/27 08:58:46;;;;;;;7.75;3.22;;;23.40;51.30;;;;;;1864690;76;21122;-38
2021/10/27 09:06:48;;;;;;;7.25;2.40;;;23.30;51.20;;;;;;1864736;77;21058;-42
2021/10/27 09:09:31;;;;;;;5.22;2.27;;;23.30;51.30;;;;;;1863617;77;21105;-37
2021/10/27 09:34:34;;;;;;;7.40;2.65;;;23.10;51.70;;;;;;1864758;77;21068;-40
2021/10/27 09:37:29;;;;;;;9.25;2.90;;;23.10;51.70;;;;;;1863162;77;21089;-40
2021/10/27 09:40:13;;;;;;;12.78;3.12;;;23.20;51.80;;;;;;1862306;77;21143;-38
2021/10/27 10:04:30;;;;;;;8.68;2.72;;;23.20;51.70;;;;;;1864618;77;21118;-40
2021/10/27 10:07:02;;;;;;;7.35;2.60;;;23.20;51.60;;;;;;1864454;76;21163;-40
2021/10/27 10:09:32;;;;;;;5.97;2.37;;;23.20;51.40;;;;;;1864652;76;21137;-39
2021/10/27 10:12:00;;;;;;;6.83;2.50;;;23.30;52.00;;;;;;1864356;76;21578;-40
2021/10/27 10:14:28;;;;;;;6.85;2.47;;;23.30;51.30;;;;;;1864696;77;21075;-38
2021/10/27 10:16:57;;;;;;;6.67;2.77;;;23.30;51.20;;;;;;1864801;77;21584;-38
2021/10/27 10:19:27;;;;;;;6.10;2.50;;;23.40;51.00;;;;;;1843497;77;21516;-38
2021/10/27 10:21:55;;;;;;;7.40;3.00;;;23.30;50.90;;;;;;1864270;77;21043;-38
2021/10/27 10:24:39;;;;;;;7.47;2.33;;;23.40;51.00;;;;;;1864500;77;21049;-39
2021/10/27 10:27:12;;;;;;;10.20;2.70;;;23.30;51.00;;;;;;1864572;77;21540;-39
2021/10/27 10:29:48;;;;;;;10.30;2.85;;;23.30;51.00;;;;;;1843727;77;21036;-41
2021/10/27 10:32:27;;;;;;;9.68;3.08;;;23.30;51.00;;;;;;1862849;77;21170;-39
2021/10/27 10:34:58;;;;;;;13.15;3.85;;;23.30;51.00;;;;;;1864601;77;21068;-40
2021/10/27 10:37:40;;;;;;;7.42;2.50;;;23.30;51.10;;;;;;1863570;77;21138;-38
2021/10/27 10:43:22;;;;;;;6.08;2.37;;;23.30;51.10;;;;;;1864504;77;21135;-37
2021/10/27 10:45:59;;;;;;;5.55;2.20;;;23.20;51.20;;;;;;1861599;77;21104;-39
2021/10/27 11:00:21;;;;;;;9.30;2.90;;;23.20;50.90;;;;;;1864516;77;21091;-42
2021/10/27 11:11:51;;;;;;;5.37;2.40;;;23.10;51.10;;;;;;1864571;77;21182;-39
2021/10/27 11:24:58;;;;;;;7.12;2.47;;;23.20;51.70;;;;;;1864587;76;21059;-38
2021/10/27 11:27:32;;;;;;;8.68;2.37;;;23.30;51.10;;;;;;1862920;77;21109;-42
2021/10/27 11:38:22;;;;;;;6.25;2.58;;;23.30;50.90;;;;;;1864619;77;21070;-39
2021/10/27 11:40:50;;;;;;;9.13;2.60;;;23.30;50.90;;;;;;1864151;77;21164;-43
2021/10/27 11:43:28;;;;;;;6.15;2.35;;;23.30;50.80;;;;;;1864294;77;21147;-44
2021/10/27 11:48:34;;;;;;;6.55;2.30;;;23.30;50.70;;;;;;1864657;76;21089;-42
2021/10/27 11:51:02;;;;;;;9.23;2.10;;;23.40;50.80;;;;;;1864541;77;21093;-38
2021/10/27 11:53:31;;;;;;;11.93;2.83;;;23.30;50.80;;;;;;1863918;76;21559;-43
2021/10/27 11:56:13;;;;;;;11.70;2.75;;;23.40;50.70;;;;;;1864668;77;21080;-40
2021/10/27 11:58:43;;;;;;;6.45;2.65;;;23.40;50.70;;;;;;1864624;77;21059;-40
2021/10/27 12:01:34;;;;;;;5.97;2.40;;;23.40;50.70;;;;;;1864610;77;21545;-40
2021/10/27 12:04:05;;;;;;;6.72;2.67;;;23.40;50.70;;;;;;1864161;77;21109;-41
2021/10/27 12:09:08;;;;;;;4.40;1.90;;;23.40;50.70;;;;;;1864561;77;21105;-46
2021/10/27 12:14:23;;;;;;;6.15;2.45;;;23.40;50.40;;;;;;1864453;77;21111;-39
2021/10/27 12:19:33;;;;;;;6.92;2.55;;;23.40;50.40;;;;;;1864590;76;21104;-40
2021/10/27 12:22:00;;;;;;;5.05;2.55;;;23.40;50.30;;;;;;1862651;77;21108;-39
2021/10/27 12:24:30;;;;;;;5.25;2.22;;;23.40;50.40;;;;;;1864626;77;21642;-42
2021/10/27 12:27:08;;;;;;;7.17;2.45;;;23.40;50.40;;;;;;1864678;77;21171;-48
2021/10/27 12:29:34;;;;;;;6.80;3.00;;;23.40;50.30;;;;;;1862281;77;21277;-44
2021/10/27 12:32:13;;;;;;;5.78;2.90;;;23.40;50.30;;;;;;1864741;77;21234;-45
2021/10/27 12:34:48;;;;;;;10.95;2.80;;;23.40;50.10;;;;;;1864745;76;21040;-43
2021/10/27 12:37:29;;;;;;;7.53;2.72;;;23.40;50.10;;;;;;1864845;77;21150;-42
2021/10/27 12:39:53;;;;;;;8.68;2.90;;;23.40;50.20;;;;;;1862087;77;21101;-46
2021/10/27 12:42:21;;;;;;;7.45;2.80;;;23.40;50.30;;;;;;1864610;77;21509;-44
2021/10/27 12:44:53;;;;;;;12.37;2.80;;;23.40;50.20;;;;;;1864651;77;21038;-43
2021/10/27 12:47:27;;;;;;;9.53;2.75;;;23.50;50.30;;;;;;1864639;77;21060;-42
2021/10/27 12:50:22;;;;;;;7.55;2.60;;;23.50;50.20;;;;;;1864655;76;21505;-41
2021/10/27 12:52:52;;;;;;;10.93;2.90;;;23.50;50.10;;;;;;1862474;77;21218;-41
2021/10/27 12:55:22;;;;;;;6.65;2.90;;;23.50;50.20;;;;;;1864617;77;21091;-42
2021/10/27 12:57:58;;;;;;;11.10;2.90;;;23.50;50.20;;;;;;1859829;77;21513;-41
2021/10/27 13:00:44;;;;;;;6.53;2.52;;;23.50;50.10;;;;;;1864295;77;21094;-43
2021/10/27 13:05:58;;;;;;;10.40;3.25;;;23.50;50.10;;;;;;1864548;76;21560;-42
2021/10/27 13:19:09;;;;;;;6.05;2.25;;;23.50;49.90;;;;;;1763740;81;21191;-44
2021/10/27 13:21:38;;;;;;;7.42;2.35;;;23.50;49.80;;;;;;1763689;81;21102;-42
2021/10/27 13:31:58;;;;;;;6.87;2.62;;;23.40;49.90;;;;;;1763681;81;21106;-42
2021/10/27 13:34:26;;;;;;;7.53;2.60;;;23.40;49.80;;;;;;1763805;81;21496;-48
2021/10/27 13:36:55;;;;;;;11.33;3.00;;;23.40;49.90;;;;;;1763786;81;21598;-42
2021/10/27 13:39:23;;;;;;;7.70;2.50;;;23.50;49.80;;;;;;1763866;81;21166;-43
2021/10/27 13:41:56;;;;;;;7.33;2.50;;;23.50;49.70;;;;;;1763798;81;21071;-45
2021/10/27 13:44:23;;;;;;;5.62;2.72;;;23.60;49.70;;;;;;1763684;81;21102;-42
2021/10/27 13:49:50;;;;;;;6.95;2.30;;;23.60;49.50;;;;;;1763758;81;21098;-49
2021/10/27 13:58:01;;;;;;;4.47;2.00;;;23.50;49.80;;;;;;1864538;77;21141;-43
2021/10/27 14:06:14;;;;;;;7.10;2.27;;;23.50;49.60;;;;;;1864505;77;21076;-46
2021/10/27 14:08:48;;;;;;;5.75;2.02;;;23.50;49.50;;;;;;1864347;77;21171;-44
2021/10/27 14:19:41;;;;;;;6.85;2.00;;;23.50;49.00;;;;;;1864586;77;21068;-39
2021/10/27 15:19:47;;;;;;;3.85;1.77;;;23.40;48.80;;;;;;1864545;77;21216;-39
2021/10/27 15:22:20;;;;;;;5.97;2.00;;;23.40;48.80;;;;;;1862343;76;21124;-37
2021/10/27 15:33:07;;;;;;;5.72;1.90;;;23.40;48.20;;;;;;1864544;77;21060;-40
2021/10/27 15:35:35;;;;;;;3.98;1.98;;;23.50;48.40;;;;;;1861933;77;21092;-36
2021/10/27 15:41:36;;;;;;;4.87;2.15;;;23.50;48.50;;;;;;1864613;77;21150;-41
2021/10/27 15:43:24;;;;;;;7.83;2.65;;;23.40;48.70;;;;;;1834245;77;21116;-44
2021/10/27 15:51:16;;;;;;;7.40;2.25;;;23.50;48.50;;;;;;1864512;76;21103;-44
2021/10/27 15:53:43;;;;;;;5.87;2.30;;;23.50;48.50;;;;;;1864742;77;21517;-42
2021/10/27 15:56:11;;;;;;;6.03;2.08;;;23.50;48.40;;;;;;1864888;77;21508;-42
2021/10/27 15:58:38;;;;;;;6.83;3.58;;;23.50;48.30;;;;;;1864817;77;21501;-42
2021/10/27 16:01:06;;;;;;;6.97;2.55;;;23.60;48.30;;;;;;1864834;77;21158;-40
2021/10/27 16:03:33;;;;;;;4.55;2.15;;;23.60;48.30;;;;;;1864668;77;21662;-39
2021/10/27 16:06:02;;;;;;;4.92;2.22;;;23.60;48.20;;;;;;1864684;77;21528;-40
2021/10/27 16:08:30;;;;;;;8.63;2.95;;;23.70;48.20;;;;;;1864783;77;21072;-39
2021/10/27 16:10:59;;;;;;;5.03;2.65;;;23.70;48.20;;;;;;1864668;76;21181;-37
2021/10/27 16:13:26;;;;;;;6.30;2.30;;;23.70;48.30;;;;;;1864716;77;21227;-38
2021/10/27 16:15:57;;;;;;;6.60;2.20;;;23.70;48.20;;;;;;1864676;77;21498;-39
2021/10/27 16:18:32;;;;;;;15.05;3.95;;;23.60;48.10;;;;;;1864798;77;21060;-40
2021/10/27 16:21:01;;;;;;;9.63;3.15;;;23.70;48.20;;;;;;1864718;77;21056;-42
2021/10/27 16:23:29;;;;;;;7.33;3.00;;;23.60;48.00;;;;;;1864646;77;21056;-41
2021/10/27 16:25:56;;;;;;;6.30;3.17;;;23.70;47.90;;;;;;1864762;77;21134;-43
2021/10/27 16:28:24;;;;;;;8.43;3.40;;;23.70;48.00;;;;;;1864653;77;21076;-44
2021/10/27 16:30:52;;;;;;;10.05;2.92;;;23.60;47.90;;;;;;1864784;76;21628;-41
2021/10/27 16:33:21;;;;;;;12.13;3.50;;;23.60;48.00;;;;;;1864733;77;21517;-40
2021/10/27 16:35:49;;;;;;;6.92;3.10;;;23.60;48.10;;;;;;1864592;77;21097;-39
2021/10/27 16:38:17;;;;;;;8.48;2.80;;;23.60;48.20;;;;;;1864684;77;21155;-42
2021/10/27 16:40:45;;;;;;;8.58;3.02;;;23.50;48.20;;;;;;1864729;77;21075;-43
2021/10/27 16:43:12;;;;;;;6.58;2.92;;;23.60;48.20;;;;;;1864745;77;21611;-45
2021/10/27 16:45:40;;;;;;;7.08;2.92;;;23.60;48.20;;;;;;1864635;77;21174;-44
2021/10/27 16:48:08;;;;;;;6.08;2.98;;;23.60;48.20;;;;;;1864803;77;21517;-38
2021/10/27 16:50:35;;;;;;;13.68;4.35;;;23.60;48.20;;;;;;1864644;77;21093;-40
2021/10/27 16:53:03;;;;;;;6.75;3.50;;;23.50;48.30;;;;;;1864683;77;21556;-43
2021/10/27 16:55:31;;;;;;;8.35;3.75;;;23.50;48.30;;;;;;1864737;75;21099;-36
2021/10/27 16:57:59;;;;;;;8.63;3.67;;;23.50;48.20;;;;;;1864633;77;21045;-37
2021/10/27 17:00:29;;;;;;;7.70;3.35;;;23.60;48.30;;;;;;1864654;77;21084;-36
2021/10/27 17:02:56;;;;;;;7.70;3.33;;;23.60;48.20;;;;;;1864648;77;21596;-36
2021/10/27 17:05:24;;;;;;;9.98;3.35;;;23.60;48.20;;;;;;1864794;77;21205;-36
2021/10/27 17:07:53;;;;;;;7.37;3.37;;;23.60;48.20;;;;;;1864689;77;21526;-38